createdAt,value
2022-12-15T00:01:24.061Z,17.87
2022-12-15T00:03:44.719Z,16.90
2022-12-15T00:06:05.336Z,18.03
2022-12-15T00:08:26.947Z,20.47
2022-12-15T00:10:47.545Z,20.97
2022-12-15T00:13:07.857Z,17.53
2022-12-15T00:15:29.566Z,17.23
2022-12-15T00:17:50.091Z,17.30
2022-12-15T00:20:10.302Z,15.87
2022-12-15T00:22:30.893Z,15.77
2022-12-15T00:24:51.526Z,19.73
2022-12-15T00:27:11.715Z,17.23
2022-12-15T00:29:31.945Z,19.40
2022-12-15T00:31:53.632Z,19.33
2022-12-15T00:34:13.848Z,19.93
2022-12-15T00:36:34.383Z,18.50
2022-12-15T00:38:45.852Z,20.77
2022-12-15T00:40:48.669Z,17.23
2022-12-15T00:42:51.514Z,17.13
2022-12-15T00:44:54.283Z,16.60
2022-12-15T00:46:57.574Z,19.23
2022-12-15T00:49:00.716Z,18.10
2022-12-15T00:51:02.623Z,19.60
2022-12-15T00:53:23.209Z,18.73
2022-12-15T00:55:43.524Z,14.87
2022-12-15T00:58:03.753Z,19.00
2022-12-15T01:00:25.689Z,15.70
2022-12-15T01:02:47.758Z,20.37
2022-12-15T01:05:08.460Z,18.13
2022-12-15T01:07:29.297Z,18.70
2022-12-15T01:09:49.977Z,19.67
2022-12-15T01:12:10.243Z,17.93
2022-12-15T01:14:31.335Z,17.80
2022-12-15T01:16:51.885Z,15.27
2022-12-15T01:19:13.801Z,16.37
2022-12-15T01:21:16.557Z,17.40
2022-12-15T01:23:19.370Z,16.83
2022-12-15T01:25:24.200Z,18.13
2022-12-15T01:27:26.986Z,19.37
2022-12-15T01:29:29.795Z,16.30
2022-12-15T01:31:32.709Z,22.27
2022-12-15T01:33:35.587Z,16.63
2022-12-15T01:35:39.986Z,19.53
2022-12-15T01:37:42.849Z,20.83
2022-12-15T01:40:03.520Z,15.80
2022-12-15T01:42:06.481Z,16.07
2022-12-15T01:44:20.480Z,18.13
2022-12-15T01:46:25.429Z,15.87
2022-12-15T01:48:34.422Z,18.53
2022-12-15T01:50:41.707Z,18.37
2022-12-15T01:52:44.870Z,17.70
2022-12-15T01:54:56.261Z,18.73
2022-12-15T01:57:05.980Z,17.37
2022-12-15T01:59:12.609Z,16.57
2022-12-15T02:01:15.575Z,16.03
2022-12-15T02:03:19.446Z,18.63
2022-12-15T02:05:23.164Z,20.90
2022-12-15T02:07:27.983Z,17.40
2022-12-15T02:09:32.949Z,20.23
2022-12-15T02:11:46.291Z,20.27
2022-12-15T02:14:00.700Z,17.67
2022-12-15T02:16:13.783Z,16.60
2022-12-15T02:18:24.434Z,15.10
2022-12-15T02:20:50.330Z,18.50
2022-12-15T02:23:16.911Z,18.83
2022-12-15T02:25:34.522Z,22.60
2022-12-15T02:27:56.554Z,17.43
2022-12-15T02:30:45.184Z,16.47
2022-12-15T02:32:55.534Z,16.10
2022-12-15T02:35:03.729Z,20.27
2022-12-15T02:37:10.127Z,17.73
2022-12-15T02:39:13.771Z,17.73
2022-12-15T02:41:38.296Z,21.30
2022-12-15T02:43:41.429Z,16.23
2022-12-15T02:45:53.675Z,17.83
2022-12-15T02:48:06.026Z,26.67
2022-12-15T02:50:25.102Z,19.13
2022-12-15T02:52:42.386Z,18.27
2022-12-15T02:54:59.026Z,18.27
2022-12-15T02:57:09.187Z,21.53
2022-12-15T02:59:18.714Z,18.80
2022-12-15T03:01:29.381Z,21.93
2022-12-15T03:03:36.002Z,19.17
2022-12-15T03:05:39.426Z,22.43
2022-12-15T03:07:43.020Z,20.67
2022-12-15T03:09:46.056Z,22.07
2022-12-15T03:11:49.057Z,24.13
2022-12-15T03:13:53.224Z,20.37
2022-12-15T03:15:58.143Z,18.73
2022-12-15T03:18:02.565Z,16.83
2022-12-15T03:20:06.610Z,19.83
2022-12-15T03:22:09.726Z,23.80
2022-12-15T03:24:12.816Z,22.20
2022-12-15T03:26:16.425Z,20.80
2022-12-15T03:28:19.493Z,21.23
2022-12-15T03:30:22.650Z,19.17
2022-12-15T03:32:25.642Z,20.13
2022-12-15T03:34:29.957Z,19.13
2022-12-15T03:36:32.851Z,22.43
2022-12-15T03:38:35.887Z,23.70
2022-12-15T03:40:38.800Z,18.57
2022-12-15T03:42:50.566Z,22.53
2022-12-15T03:44:53.493Z,22.53
2022-12-15T03:47:02.749Z,15.80
2022-12-15T03:49:06.325Z,19.27
2022-12-15T03:51:10.622Z,21.90
2022-12-15T03:53:13.710Z,22.63
2022-12-15T03:55:16.817Z,17.83
2022-12-15T03:57:20.453Z,23.80
2022-12-15T03:59:23.321Z,22.47
2022-12-15T04:01:30.329Z,24.23
2022-12-15T04:03:34.012Z,20.87
2022-12-15T04:05:38.832Z,19.63
2022-12-15T04:07:43.229Z,22.27
2022-12-15T04:09:46.137Z,19.80
2022-12-15T04:11:49.095Z,20.57
2022-12-15T04:13:52.019Z,22.03
2022-12-15T04:15:54.889Z,18.83
2022-12-15T04:17:58.361Z,23.07
2022-12-15T04:20:09.885Z,25.53
2022-12-15T04:22:17.772Z,21.13
2022-12-15T04:24:39.918Z,17.63
2022-12-15T04:27:00.569Z,18.60
2022-12-15T04:29:20.846Z,21.57
2022-12-15T04:31:43.870Z,21.07
2022-12-15T04:34:07.341Z,25.67
2022-12-15T04:36:30.344Z,19.60
2022-12-15T04:38:51.109Z,18.60
2022-12-15T04:41:13.050Z,20.67
2022-12-15T04:43:33.728Z,18.20
2022-12-15T04:45:54.684Z,22.07
2022-12-15T04:48:15.105Z,23.43
2022-12-15T04:50:35.595Z,26.07
2022-12-15T04:52:56.279Z,26.37
2022-12-15T04:55:16.785Z,22.37
2022-12-15T04:57:39.125Z,19.70
2022-12-15T04:59:59.348Z,22.00
2022-12-15T05:02:19.924Z,20.07
2022-12-15T05:04:40.516Z,24.07
2022-12-15T05:07:01.034Z,22.93
2022-12-15T05:09:23.530Z,24.47
2022-12-15T05:11:44.428Z,19.80
2022-12-15T05:14:06.342Z,23.13
2022-12-15T05:16:26.844Z,21.53
2022-12-15T05:18:47.685Z,18.00
2022-12-15T05:21:08.052Z,25.33
2022-12-15T05:23:28.779Z,23.07
2022-12-15T05:25:50.226Z,23.10
2022-12-15T05:28:13.532Z,21.93
2022-12-15T05:30:35.731Z,23.40
2022-12-15T05:32:38.924Z,23.20
2022-12-15T05:34:41.846Z,23.60
2022-12-15T05:36:44.777Z,21.00
2022-12-15T05:38:50.407Z,19.77
2022-12-15T05:40:53.482Z,26.57
2022-12-15T05:42:59.161Z,22.90
2022-12-15T05:45:02.164Z,24.27
2022-12-15T05:47:06.495Z,33.27
2022-12-15T05:49:11.456Z,22.37
2022-12-15T05:51:15.116Z,24.33
2022-12-15T05:53:18.009Z,27.87
2022-12-15T05:55:21.501Z,26.30
2022-12-15T05:57:24.428Z,26.17
2022-12-15T05:59:27.324Z,23.53
2022-12-15T06:01:31.061Z,29.47
2022-12-15T06:03:35.733Z,27.83
2022-12-15T06:05:38.602Z,37.17
2022-12-15T06:07:42.381Z,33.53
2022-12-15T06:09:45.293Z,29.50
2022-12-15T06:11:48.243Z,30.17
2022-12-15T06:13:51.382Z,30.50
2022-12-15T06:15:58.467Z,27.50
2022-12-15T06:18:01.414Z,27.67
2022-12-15T06:20:06.472Z,27.67
2022-12-15T06:22:09.370Z,28.07
2022-12-15T06:24:12.372Z,26.00
2022-12-15T06:26:18.432Z,23.40
2022-12-15T06:28:23.898Z,23.43
2022-12-15T06:30:26.919Z,30.43
2022-12-15T06:32:29.918Z,30.17
2022-12-15T06:34:32.891Z,22.60
2022-12-15T06:36:37.893Z,23.20
2022-12-15T06:38:43.593Z,24.50
2022-12-15T06:40:47.060Z,20.30
2022-12-15T06:42:49.954Z,20.03
2022-12-15T06:44:52.909Z,27.53
2022-12-15T06:46:55.942Z,32.83
2022-12-15T06:48:59.716Z,24.23
2022-12-15T06:51:04.863Z,29.00
2022-12-15T06:53:09.360Z,36.20
2022-12-15T06:55:12.390Z,28.30
2022-12-15T06:57:15.347Z,23.57
2022-12-15T06:59:18.402Z,24.93
2022-12-15T07:01:22.683Z,22.90
2022-12-15T07:03:26.273Z,23.70
2022-12-15T07:05:29.304Z,26.50
2022-12-15T07:07:32.511Z,24.70
2022-12-15T07:09:36.900Z,22.40
2022-12-15T07:11:40.496Z,26.30
2022-12-15T07:13:43.429Z,28.87
2022-12-15T07:15:47.186Z,23.70
2022-12-15T07:17:50.999Z,33.10
2022-12-15T07:19:53.971Z,26.50
2022-12-15T07:21:58.984Z,31.70
2022-12-15T07:24:02.615Z,26.07
2022-12-15T07:26:11.685Z,25.13
2022-12-15T07:28:14.918Z,26.27
2022-12-15T07:30:18.580Z,25.67
2022-12-15T07:32:22.235Z,26.60
2022-12-15T07:34:25.152Z,33.67
2022-12-15T07:36:28.705Z,39.37
2022-12-15T07:38:32.167Z,32.13
2022-12-15T07:40:35.183Z,33.73
2022-12-15T07:42:39.459Z,33.57
2022-12-15T07:44:42.394Z,29.67
2022-12-15T07:46:46.908Z,25.00
2022-12-15T07:48:50.907Z,28.03
2022-12-15T07:51:05.117Z,26.67
2022-12-15T07:53:11.682Z,30.00
2022-12-15T07:55:16.462Z,25.93
2022-12-15T07:57:19.821Z,30.30
2022-12-15T07:59:24.358Z,30.87
2022-12-15T08:01:28.538Z,31.73
2022-12-15T08:03:32.242Z,30.47
2022-12-15T08:05:36.447Z,30.50
2022-12-15T08:07:39.500Z,36.87
2022-12-15T08:09:42.436Z,29.93
2022-12-15T08:11:45.483Z,32.13
2022-12-15T08:14:05.688Z,31.70
2022-12-15T08:16:13.025Z,29.53
2022-12-15T08:18:15.992Z,37.03
2022-12-15T08:20:19.024Z,30.67
2022-12-15T08:22:22.069Z,36.53
2022-12-15T08:24:25.031Z,32.03
2022-12-15T08:26:30.738Z,34.10
2022-12-15T08:28:34.707Z,32.33
2022-12-15T08:30:38.046Z,34.30
2022-12-15T08:32:45.039Z,32.17
2022-12-15T08:34:54.777Z,30.00
2022-12-15T08:36:57.991Z,28.93
2022-12-15T08:39:02.080Z,32.37
2022-12-15T08:41:09.505Z,35.77
2022-12-15T08:43:12.421Z,28.57
2022-12-15T08:45:15.373Z,36.63
2022-12-15T08:47:18.412Z,33.73
2022-12-15T08:49:22.807Z,36.70
2022-12-15T08:51:28.246Z,36.77
2022-12-15T08:53:32.045Z,34.43
2022-12-15T08:55:35.510Z,36.53
2022-12-15T08:57:38.940Z,36.77
2022-12-15T08:59:41.966Z,32.00
2022-12-15T09:01:45.262Z,32.90
2022-12-15T09:03:48.631Z,35.13
2022-12-15T09:05:52.862Z,31.77
2022-12-15T09:07:59.359Z,28.17
2022-12-15T09:10:05.224Z,28.80
2022-12-15T09:12:08.530Z,32.93
2022-12-15T09:14:11.403Z,31.93
2022-12-15T09:16:16.764Z,30.43
2022-12-15T09:18:19.761Z,28.03
2022-12-15T09:20:22.702Z,28.13
2022-12-15T09:22:29.168Z,30.10
2022-12-15T09:24:34.959Z,24.53
2022-12-15T09:26:38.244Z,25.13
2022-12-15T09:28:42.766Z,25.30
2022-12-15T09:30:45.819Z,27.83
2022-12-15T09:32:48.824Z,29.17
2022-12-15T09:34:52.547Z,24.13
2022-12-15T09:36:55.455Z,29.90
2022-12-15T09:39:01.850Z,27.63
2022-12-15T09:41:10.259Z,25.90
2022-12-15T09:43:34.365Z,23.80
2022-12-15T09:45:44.364Z,24.57
2022-12-15T09:47:54.513Z,25.53
2022-12-15T09:49:58.790Z,23.07
2022-12-15T09:52:10.622Z,27.07
2022-12-15T09:54:15.785Z,27.67
2022-12-15T09:56:22.257Z,25.73
2022-12-15T09:58:41.144Z,23.73
2022-12-15T10:00:52.251Z,25.63
2022-12-15T10:03:30.446Z,27.70
2022-12-15T10:06:07.132Z,24.90
2022-12-15T10:08:07.362Z,20.80
2022-12-15T10:10:18.928Z,22.30
2022-12-15T10:12:26.454Z,21.63
2022-12-15T10:14:33.718Z,21.20
2022-12-15T10:16:47.760Z,20.83
2022-12-15T10:19:03.014Z,19.53
2022-12-15T10:21:06.261Z,24.37
2022-12-15T10:23:13.652Z,25.30
2022-12-15T10:25:29.305Z,27.13
2022-12-15T10:27:46.629Z,22.73
2022-12-15T10:30:01.446Z,24.03
2022-12-15T10:32:07.177Z,23.17
2022-12-15T10:34:17.658Z,23.10
2022-12-15T10:36:20.754Z,20.93
2022-12-15T10:38:27.321Z,19.60
2022-12-15T10:40:50.322Z,21.50
2022-12-15T10:42:53.850Z,20.97
2022-12-15T10:44:58.612Z,21.30
2022-12-15T10:47:10.880Z,20.67
2022-12-15T10:49:24.010Z,24.13
2022-12-15T10:51:30.937Z,22.83
2022-12-15T10:53:42.365Z,20.00
2022-12-15T10:55:50.016Z,20.83
2022-12-15T10:58:00.014Z,16.40
2022-12-15T11:00:28.715Z,21.20
2022-12-15T11:02:34.553Z,21.17
2022-12-15T11:04:37.645Z,26.33
2022-12-15T11:06:43.447Z,23.80
2022-12-15T11:08:47.449Z,29.60
2022-12-15T11:11:11.849Z,25.33
2022-12-15T11:13:17.346Z,23.60
2022-12-15T11:15:47.122Z,21.83
2022-12-15T11:18:00.283Z,18.83
2022-12-15T11:20:07.263Z,22.97
2022-12-15T11:22:18.231Z,20.40
2022-12-15T11:24:30.511Z,20.63
2022-12-15T11:26:49.039Z,19.60
2022-12-15T11:28:57.527Z,25.23
2022-12-15T11:31:07.885Z,23.70
2022-12-15T11:33:11.324Z,22.23
2022-12-15T11:35:16.677Z,19.73
2022-12-15T11:37:42.530Z,18.47
2022-12-15T11:39:57.528Z,20.70
2022-12-15T11:42:09.931Z,20.17
2022-12-15T11:44:24.996Z,18.13
2022-12-15T11:46:31.686Z,17.13
2022-12-15T11:48:42.273Z,14.83
2022-12-15T11:50:54.441Z,17.53
2022-12-15T11:53:09.175Z,16.40
2022-12-15T11:57:57.426Z,11.13
2022-12-15T12:00:06.122Z,10.60
2022-12-15T12:02:31.064Z,10.43
2022-12-15T12:04:43.289Z,11.40
2022-12-15T12:06:55.486Z,8.30
2022-12-15T12:09:13.371Z,14.03
2022-12-15T12:11:18.968Z,9.57
2022-12-15T12:13:29.471Z,14.60
2022-12-15T12:15:42.111Z,11.30
2022-12-15T12:17:48.146Z,9.33
2022-12-15T12:19:55.518Z,9.30
2022-12-15T12:22:12.814Z,9.03
2022-12-15T12:24:20.905Z,10.67
2022-12-15T12:26:30.393Z,10.53
2022-12-15T12:28:48.636Z,12.63
2022-12-15T12:30:54.850Z,11.47
2022-12-15T12:33:04.954Z,8.90
2022-12-15T12:35:31.369Z,7.80
2022-12-15T12:37:41.863Z,10.70
2022-12-15T12:39:45.869Z,11.23
2022-12-15T12:41:53.807Z,11.93
2022-12-15T12:44:01.162Z,11.83
2022-12-15T12:46:11.430Z,12.63
2022-12-15T12:48:23.393Z,15.87
2022-12-15T12:50:28.246Z,10.50
2022-12-15T12:52:33.392Z,12.37
2022-12-15T12:54:45.490Z,13.07
2022-12-15T12:56:50.555Z,8.70
2022-12-15T12:58:53.701Z,8.50
2022-12-15T13:01:08.349Z,9.03
2022-12-15T13:03:18.197Z,12.07
2022-12-15T13:05:31.195Z,9.37
2022-12-15T13:07:36.374Z,10.00
2022-12-15T13:09:41.943Z,11.17
2022-12-15T13:12:14.884Z,10.53
2022-12-15T13:14:46.559Z,10.33
2022-12-15T13:17:24.773Z,10.30
2022-12-15T13:20:10.639Z,9.67
2022-12-15T13:22:25.461Z,9.33
2022-12-15T13:24:37.498Z,8.73
2022-12-15T13:26:45.688Z,10.90
2022-12-15T13:28:53.237Z,13.73
2022-12-15T13:31:28.714Z,15.00
2022-12-15T13:33:33.595Z,17.93
2022-12-15T13:35:37.305Z,12.27
2022-12-15T13:37:48.999Z,15.13
2022-12-15T13:39:57.405Z,15.77
2022-12-15T13:42:53.050Z,13.83
2022-12-15T13:45:33.195Z,14.47
2022-12-15T13:47:36.525Z,10.20
2022-12-15T13:49:53.255Z,11.17
2022-12-15T13:52:03.903Z,13.77
2022-12-15T13:54:22.425Z,15.13
2022-12-15T13:56:52.025Z,13.90
2022-12-15T13:59:02.075Z,13.17
2022-12-15T14:01:18.813Z,15.27
2022-12-15T14:03:22.334Z,14.63
2022-12-15T14:05:27.056Z,16.83
2022-12-15T14:07:30.753Z,17.97
2022-12-15T14:09:37.242Z,21.70
2022-12-15T14:11:58.345Z,15.97
2022-12-15T14:14:02.106Z,24.03
2022-12-15T14:16:18.467Z,23.80
2022-12-15T14:18:29.148Z,23.17
2022-12-15T14:20:41.616Z,27.10
2022-12-15T14:22:44.593Z,26.93
2022-12-15T14:24:49.214Z,24.60
2022-12-15T14:26:52.569Z,32.33
2022-12-15T14:29:02.934Z,26.13
2022-12-15T14:31:12.594Z,28.83
2022-12-15T14:33:17.661Z,24.57
2022-12-15T14:35:29.623Z,26.17
2022-12-15T14:37:35.045Z,27.20
2022-12-15T14:39:43.553Z,20.07
2022-12-15T14:41:51.687Z,18.87
2022-12-15T14:44:36.156Z,19.77
2022-12-15T14:46:26.918Z,18.83
2022-12-15T14:48:42.790Z,16.50
2022-12-15T14:50:47.750Z,21.87
2022-12-15T14:52:56.084Z,16.40
2022-12-15T14:55:01.116Z,21.83
2022-12-15T14:57:14.709Z,16.53
2022-12-15T14:59:20.811Z,21.93
2022-12-15T15:01:26.212Z,22.03
2022-12-15T15:03:09.224Z,12.70
2022-12-15T15:03:38.169Z,18.50
2022-12-15T15:05:43.863Z,15.70
2022-12-15T15:07:47.261Z,17.43
2022-12-15T15:09:52.068Z,24.20
2022-12-15T15:11:58.080Z,26.43
2022-12-15T15:14:06.140Z,27.00
2022-12-15T15:16:16.492Z,26.20
2022-12-15T15:18:24.011Z,26.20
2022-12-15T15:20:30.326Z,26.47
2022-12-15T15:22:39.789Z,31.80
2022-12-15T15:24:42.723Z,37.13
2022-12-15T15:26:47.007Z,45.90
2022-12-15T15:28:50.055Z,41.13
2022-12-15T15:30:56.502Z,27.17
2022-12-15T15:33:02.160Z,22.13
2022-12-15T15:35:06.037Z,20.43
2022-12-15T15:37:18.295Z,22.33
2022-12-15T15:39:21.510Z,22.33
2022-12-15T15:41:29.817Z,25.07
2022-12-15T15:43:34.110Z,38.73
2022-12-15T15:45:37.192Z,39.47
2022-12-15T15:47:40.935Z,41.70
2022-12-15T15:49:46.221Z,38.17
2022-12-15T15:51:49.737Z,34.43
2022-12-15T15:53:53.231Z,39.43
2022-12-15T15:55:56.809Z,36.63
2022-12-15T15:58:04.371Z,31.50
2022-12-15T16:00:17.223Z,41.47
2022-12-15T16:02:20.377Z,36.63
2022-12-15T16:04:24.771Z,32.90
2022-12-15T16:06:27.920Z,31.37
2022-12-15T16:08:36.826Z,33.10
2022-12-15T16:10:39.781Z,24.63
2022-12-15T16:12:45.202Z,25.53
2022-12-15T16:14:48.099Z,22.83
2022-12-15T16:16:53.879Z,19.17
2022-12-15T16:18:56.789Z,21.00
2022-12-15T16:21:00.170Z,22.20
2022-12-15T16:23:06.375Z,22.60
2022-12-15T16:25:15.885Z,37.03
2022-12-15T16:27:18.898Z,29.77
2022-12-15T16:29:22.382Z,34.57
2022-12-15T16:31:34.203Z,48.73
2022-12-15T16:33:43.352Z,36.57
2022-12-15T16:35:48.164Z,54.07
2022-12-15T16:37:51.530Z,23.00
2022-12-15T16:39:54.521Z,23.23
2022-12-15T16:41:58.000Z,24.73
2022-12-15T16:44:00.856Z,28.47
2022-12-15T16:46:03.961Z,39.77
2022-12-15T16:48:06.981Z,37.10
2022-12-15T16:50:18.747Z,38.70
2022-12-15T16:52:22.576Z,51.43
2022-12-15T16:54:27.869Z,48.97
2022-12-15T16:56:30.746Z,49.20
2022-12-15T16:58:36.578Z,48.77
2022-12-15T17:00:39.484Z,39.97
2022-12-15T17:02:42.543Z,36.03
2022-12-15T17:04:45.653Z,41.27
2022-12-15T17:06:50.176Z,42.80
2022-12-15T17:08:56.645Z,36.87
2022-12-15T17:10:59.738Z,30.37
2022-12-15T17:13:06.660Z,25.97
2022-12-15T17:15:17.743Z,27.63
2022-12-15T17:17:21.288Z,50.53
2022-12-15T17:19:24.165Z,53.03
2022-12-15T17:21:30.141Z,47.57
2022-12-15T17:23:36.256Z,33.10
2022-12-15T17:28:06.528Z,22.60
2022-12-15T17:30:14.332Z,20.13
2022-12-15T17:32:17.545Z,26.17
2022-12-15T17:34:27.045Z,25.50
2022-12-15T17:36:30.447Z,24.20
2022-12-15T17:38:35.192Z,19.43
2022-12-15T17:40:38.085Z,22.73
2022-12-15T17:42:41.000Z,25.33
2022-12-15T17:44:46.634Z,32.73
2022-12-15T17:46:51.172Z,35.07
2022-12-15T17:48:54.125Z,33.27
2022-12-15T17:50:56.980Z,34.67
2022-12-15T17:53:00.513Z,57.03
2022-12-15T17:55:15.911Z,61.80
2022-12-15T17:57:18.908Z,65.93
2022-12-15T17:59:21.844Z,54.83
2022-12-15T18:01:24.920Z,39.80
2022-12-15T18:03:28.078Z,31.40
2022-12-15T18:05:32.308Z,29.37
2022-12-15T18:07:36.159Z,28.30
2022-12-15T18:09:39.251Z,30.53
2022-12-15T18:11:46.649Z,29.00
2022-12-15T18:13:49.702Z,30.43
2022-12-15T18:15:53.743Z,28.20
2022-12-15T18:17:57.609Z,26.87
2022-12-15T18:20:00.575Z,37.03
2022-12-15T18:22:03.483Z,69.73
2022-12-15T18:24:13.203Z,71.20
2022-12-15T18:26:16.405Z,61.20
2022-12-15T18:28:24.051Z,43.20
2022-12-15T18:30:28.478Z,36.67
2022-12-15T18:32:32.603Z,32.37
2022-12-15T18:34:36.160Z,37.50
2022-12-15T18:36:39.835Z,30.33
2022-12-15T18:38:43.267Z,24.13
2022-12-15T18:40:47.602Z,24.93
2022-12-15T18:42:50.634Z,23.13
2022-12-15T18:44:56.604Z,18.37
2022-12-15T18:46:59.528Z,27.93
2022-12-15T18:49:02.538Z,43.80
2022-12-15T18:51:16.757Z,38.17
2022-12-15T18:53:23.562Z,30.20
2022-12-15T18:55:27.900Z,31.20
2022-12-15T18:57:33.561Z,30.93
2022-12-15T18:59:36.437Z,24.90
2022-12-15T19:01:41.264Z,35.97
2022-12-15T19:03:44.272Z,63.33
2022-12-15T19:05:48.132Z,59.30
2022-12-15T19:07:51.124Z,29.77
2022-12-15T19:09:54.562Z,21.30
2022-12-15T19:12:14.319Z,22.30
2022-12-15T19:14:37.183Z,21.57
2022-12-15T19:16:58.914Z,22.07
2022-12-15T19:19:19.695Z,23.67
2022-12-15T19:21:45.369Z,23.70
2022-12-15T19:23:48.650Z,24.57
2022-12-15T19:25:53.252Z,26.93
2022-12-15T19:27:59.272Z,29.10
2022-12-15T19:30:02.607Z,25.90
2022-12-15T19:32:07.455Z,29.13
2022-12-15T19:34:10.914Z,33.33
2022-12-15T19:36:18.499Z,31.17
2022-12-15T19:38:27.331Z,32.37
2022-12-15T19:40:32.516Z,32.40
2022-12-15T19:42:37.130Z,29.53
2022-12-15T19:44:40.079Z,21.23
2022-12-15T19:46:43.649Z,141.57
2022-12-15T19:48:48.732Z,93.60
2022-12-15T19:50:52.155Z,26.60
2022-12-15T19:52:59.788Z,30.40
2022-12-15T19:55:02.796Z,18.37
2022-12-15T19:57:06.877Z,23.10
2022-12-15T19:59:18.664Z,21.87
2022-12-15T20:01:21.967Z,27.10
2022-12-15T20:03:25.655Z,25.70
2022-12-15T20:05:29.948Z,32.53
2022-12-15T20:07:33.342Z,25.20
2022-12-15T20:09:36.308Z,24.10
2022-12-15T20:11:39.369Z,36.23
2022-12-15T20:13:42.331Z,28.43
2022-12-15T20:15:45.527Z,24.33
2022-12-15T20:17:50.479Z,24.43
2022-12-15T20:19:53.360Z,25.17
2022-12-15T20:21:57.946Z,21.77
2022-12-15T20:24:05.211Z,24.67
2022-12-15T20:26:08.201Z,22.47
2022-12-15T20:28:23.029Z,18.10
2022-12-15T20:30:28.584Z,19.87
2022-12-15T20:32:38.066Z,17.30
2022-12-15T20:34:41.392Z,23.90
2022-12-15T20:36:44.369Z,22.17
2022-12-15T20:38:49.170Z,20.37
2022-12-15T20:40:52.577Z,22.60
2022-12-15T20:42:55.868Z,20.93
2022-12-15T20:44:59.251Z,27.67
2022-12-15T20:47:02.316Z,26.93
2022-12-15T20:49:07.032Z,22.07
2022-12-15T20:51:17.055Z,20.73
2022-12-15T20:53:22.614Z,23.17
2022-12-15T20:55:27.556Z,29.30
2022-12-15T20:57:30.920Z,24.37
2022-12-15T20:59:33.855Z,22.83
2022-12-15T21:01:39.037Z,22.03
2022-12-15T21:03:43.572Z,19.57
2022-12-15T21:05:47.396Z,25.77
2022-12-15T21:07:50.700Z,21.90
2022-12-15T21:09:53.604Z,23.57
2022-12-15T21:11:58.457Z,22.70
2022-12-15T21:14:04.308Z,20.50
2022-12-15T21:16:07.846Z,25.00
2022-12-15T21:19:10.980Z,18.70
2022-12-15T21:20:36.301Z,19.77
2022-12-15T21:22:39.416Z,18.97
2022-12-15T21:24:42.334Z,17.63
2022-12-15T21:26:45.606Z,16.30
2022-12-15T21:28:51.170Z,15.93
2022-12-15T21:30:54.242Z,17.83
2022-12-15T21:32:57.235Z,18.30
2022-12-15T21:35:00.462Z,17.27
2022-12-15T21:37:04.349Z,18.57
2022-12-15T21:39:11.534Z,21.10
2022-12-15T21:41:16.861Z,18.47
2022-12-15T21:43:21.949Z,17.57
2022-12-15T21:45:27.516Z,16.33
2022-12-15T21:47:52.763Z,18.17
2022-12-15T21:49:57.510Z,20.17
2022-12-15T21:52:01.839Z,17.43
2022-12-15T21:54:05.931Z,14.67
2022-12-15T21:56:14.783Z,19.40
2022-12-15T21:58:20.642Z,19.30
2022-12-15T22:00:24.607Z,17.60
2022-12-15T22:02:29.177Z,17.10
2022-12-15T22:04:34.858Z,19.60
2022-12-15T22:06:37.827Z,19.20
2022-12-15T22:08:41.367Z,30.00
2022-12-15T22:10:45.766Z,24.40
2022-12-15T22:12:59.075Z,22.57
2022-12-15T22:15:03.337Z,19.17
2022-12-15T22:17:16.809Z,21.43
2022-12-15T22:19:21.444Z,19.80
2022-12-15T22:21:24.684Z,18.30
2022-12-15T22:23:27.673Z,18.93
2022-12-15T22:25:30.854Z,19.37
2022-12-15T22:27:34.723Z,21.67
2022-12-15T22:29:38.594Z,20.43
2022-12-15T22:31:41.544Z,24.17
2022-12-15T22:33:44.477Z,22.40
2022-12-15T22:35:52.455Z,19.47
2022-12-15T22:38:00.044Z,21.43
2022-12-15T22:40:02.990Z,22.47
2022-12-15T22:42:06.627Z,21.50
2022-12-15T22:44:16.804Z,22.43
2022-12-15T22:46:21.806Z,20.83
2022-12-15T22:48:28.344Z,21.03
2022-12-15T22:50:31.373Z,17.70
2022-12-15T22:52:35.655Z,20.23
2022-12-15T22:54:42.644Z,23.37
2022-12-15T22:56:48.337Z,21.47
2022-12-15T22:58:55.192Z,19.10
2022-12-15T23:00:59.867Z,22.70
2022-12-15T23:03:03.157Z,26.90
2022-12-15T23:05:06.789Z,29.27
2022-12-15T23:07:10.995Z,23.33
2022-12-15T23:09:15.270Z,23.57
2022-12-15T23:11:35.835Z,25.60
2022-12-15T23:13:38.784Z,26.87
2022-12-15T23:15:59.525Z,24.73
2022-12-15T23:18:02.444Z,25.03
2022-12-15T23:20:06.270Z,24.17
2022-12-15T23:22:09.221Z,21.47
2022-12-15T23:24:12.164Z,25.87
2022-12-15T23:26:18.125Z,25.33
2022-12-15T23:28:21.095Z,23.23
2022-12-15T23:30:24.455Z,24.93
2022-12-15T23:32:27.510Z,17.33
2022-12-15T23:34:30.445Z,24.30
2022-12-15T23:36:33.410Z,20.17
2022-12-15T23:38:36.694Z,18.60
2022-12-15T23:40:49.496Z,19.93
2022-12-15T23:42:55.405Z,22.60
2022-12-15T23:44:58.465Z,21.67
2022-12-15T23:47:01.462Z,22.27
2022-12-15T23:49:04.513Z,23.90
2022-12-15T23:51:09.982Z,24.07
2022-12-15T23:53:12.906Z,20.47
2022-12-15T23:55:15.946Z,21.57
2022-12-15T23:57:18.897Z,20.87
2022-12-15T23:59:23.319Z,20.90
